sensor_id;sensor_type;location;lat;lon;timestamp;pressure;altitude;pressure_sealevel;temperature;humidity
72685;BME280;61365;52.162;4.500;2023-02-15T00:01:52;102894.09;;;4.59;93.39
72685;BME280;61365;52.162;4.500;2023-02-15T00:04:21;102892.41;;;4.60;94.08
72685;BME280;61365;52.162;4.500;2023-02-15T00:06:50;102890.19;;;4.51;93.97
72685;BME280;61365;52.162;4.500;2023-02-15T00:09:16;102889.03;;;4.46;94.57
72685;BME280;61365;52.162;4.500;2023-02-15T00:11:43;102877.19;;;4.51;94.89
72685;BME280;61365;52.162;4.500;2023-02-15T00:14:23;102876.28;;;4.50;94.81
72685;BME280;61365;52.162;4.500;2023-02-15T00:16:51;102876.44;;;4.54;95.09
72685;BME280;61365;52.162;4.500;2023-02-15T00:19:20;102861.31;;;4.46;94.63
72685;BME280;61365;52.162;4.500;2023-02-15T00:21:48;102866.31;;;4.43;94.94
72685;BME280;61365;52.162;4.500;2023-02-15T00:24:17;102860.00;;;4.38;95.39
72685;BME280;61365;52.162;4.500;2023-02-15T00:26:46;102874.78;;;4.39;95.40
72685;BME280;61365;52.162;4.500;2023-02-15T00:29:15;102862.78;;;4.41;95.60
72685;BME280;61365;52.162;4.500;2023-02-15T00:31:42;102857.66;;;4.43;95.37
72685;BME280;61365;52.162;4.500;2023-02-15T00:34:23;102858.28;;;4.39;95.58
72685;BME280;61365;52.162;4.500;2023-02-15T00:36:51;102860.16;;;4.41;95.46
72685;BME280;61365;52.162;4.500;2023-02-15T00:39:19;102855.91;;;4.43;95.04
72685;BME280;61365;52.162;4.500;2023-02-15T00:41:46;102857.66;;;4.43;95.13
72685;BME280;61365;52.162;4.500;2023-02-15T00:44:13;102858.19;;;4.52;95.06
72685;BME280;61365;52.162;4.500;2023-02-15T00:46:40;102852.81;;;4.34;94.78
72685;BME280;61365;52.162;4.500;2023-02-15T00:49:07;102852.19;;;4.38;95.70
72685;BME280;61365;52.162;4.500;2023-02-15T00:51:34;102867.44;;;4.32;95.50
72685;BME280;61365;52.162;4.500;2023-02-15T00:54:00;102854.88;;;4.25;95.99
72685;BME280;61365;52.162;4.500;2023-02-15T00:56:26;102851.66;;;4.29;95.31
72685;BME280;61365;52.162;4.500;2023-02-15T00:58:54;102851.03;;;4.33;95.30
72685;BME280;61365;52.162;4.500;2023-02-15T01:01:21;102847.25;;;4.28;95.30
72685;BME280;61365;52.162;4.500;2023-02-15T01:03:47;102837.94;;;4.16;95.62
72685;BME280;61365;52.162;4.500;2023-02-15T01:06:15;102839.28;;;4.10;95.99
72685;BME280;61365;52.162;4.500;2023-02-15T01:08:43;102841.09;;;4.11;95.61
72685;BME280;61365;52.162;4.500;2023-02-15T01:11:14;102842.81;;;4.10;96.04
72685;BME280;61365;52.162;4.500;2023-02-15T01:13:49;102847.19;;;4.11;96.13
72685;BME280;61365;52.162;4.500;2023-02-15T01:16:21;102847.91;;;4.09;95.66
72685;BME280;61365;52.162;4.500;2023-02-15T01:18:49;102843.16;;;4.01;95.87
72685;BME280;61365;52.162;4.500;2023-02-15T01:21:18;102836.50;;;4.06;95.84
72685;BME280;61365;52.162;4.500;2023-02-15T01:23:47;102834.09;;;4.10;95.45
72685;BME280;61365;52.162;4.500;2023-02-15T01:26:14;102824.00;;;3.99;95.16
72685;BME280;61365;52.162;4.500;2023-02-15T01:28:41;102819.69;;;4.00;95.35
72685;BME280;61365;52.162;4.500;2023-02-15T01:31:09;102828.91;;;3.95;95.39
72685;BME280;61365;52.162;4.500;2023-02-15T01:33:41;102820.41;;;3.97;95.36
72685;BME280;61365;52.162;4.500;2023-02-15T01:36:07;102822.28;;;4.00;95.26
72685;BME280;61365;52.162;4.500;2023-02-15T01:38:34;102817.00;;;3.98;95.55
72685;BME280;61365;52.162;4.500;2023-02-15T01:41:01;102823.72;;;3.95;95.54
72685;BME280;61365;52.162;4.500;2023-02-15T01:43:48;102818.50;;;3.95;95.26
72685;BME280;61365;52.162;4.500;2023-02-15T01:46:24;102825.44;;;3.94;94.97
72685;BME280;61365;52.162;4.500;2023-02-15T01:49:07;102821.84;;;3.92;94.94
72685;BME280;61365;52.162;4.500;2023-02-15T01:51:41;102819.44;;;3.95;95.79
72685;BME280;61365;52.162;4.500;2023-02-15T01:54:17;102810.72;;;3.95;95.05
72685;BME280;61365;52.162;4.500;2023-02-15T01:56:50;102815.66;;;3.90;95.21
72685;BME280;61365;52.162;4.500;2023-02-15T01:59:19;102813.44;;;3.96;95.33
72685;BME280;61365;52.162;4.500;2023-02-15T02:01:51;102811.72;;;3.97;95.87
72685;BME280;61365;52.162;4.500;2023-02-15T02:04:29;102810.81;;;3.96;95.91
72685;BME280;61365;52.162;4.500;2023-02-15T02:07:02;102814.31;;;3.97;95.97
72685;BME280;61365;52.162;4.500;2023-02-15T02:09:30;102809.66;;;3.91;95.74
72685;BME280;61365;52.162;4.500;2023-02-15T02:11:56;102810.38;;;3.88;95.67
72685;BME280;61365;52.162;4.500;2023-02-15T02:14:24;102811.63;;;3.80;95.64
72685;BME280;61365;52.162;4.500;2023-02-15T02:17:02;102794.34;;;3.81;95.79
72685;BME280;61365;52.162;4.500;2023-02-15T02:25:27;102785.91;;;3.85;95.26
72685;BME280;61365;52.162;4.500;2023-02-15T02:28:37;102781.00;;;3.74;95.18
72685;BME280;61365;52.162;4.500;2023-02-15T02:36:44;102771.78;;;3.65;95.78
72685;BME280;61365;52.162;4.500;2023-02-15T02:42:18;102768.72;;;3.57;96.15
72685;BME280;61365;52.162;4.500;2023-02-15T02:44:49;102758.25;;;3.70;94.98
72685;BME280;61365;52.162;4.500;2023-02-15T02:47:46;102765.50;;;3.61;94.82
72685;BME280;61365;52.162;4.500;2023-02-15T02:50:23;102757.53;;;3.43;95.64
72685;BME280;61365;52.162;4.500;2023-02-15T02:52:54;102752.19;;;3.40;96.87
72685;BME280;61365;52.162;4.500;2023-02-15T02:58:19;102741.44;;;3.49;95.96
72685;BME280;61365;52.162;4.500;2023-02-15T03:00:59;102737.66;;;3.43;96.49
72685;BME280;61365;52.162;4.500;2023-02-15T03:03:42;102737.22;;;3.36;96.85
72685;BME280;61365;52.162;4.500;2023-02-15T03:06:25;102732.09;;;3.22;97.05
72685;BME280;61365;52.162;4.500;2023-02-15T03:09:03;102744.53;;;3.28;97.49
72685;BME280;61365;52.162;4.500;2023-02-15T03:11:43;102743.66;;;3.27;97.65
72685;BME280;61365;52.162;4.500;2023-02-15T03:14:13;102741.06;;;3.27;97.42
72685;BME280;61365;52.162;4.500;2023-02-15T03:16:43;102739.19;;;3.25;97.78
72685;BME280;61365;52.162;4.500;2023-02-15T03:19:20;102736.22;;;3.19;97.67
72685;BME280;61365;52.162;4.500;2023-02-15T03:21:56;102731.81;;;3.18;97.28
72685;BME280;61365;52.162;4.500;2023-02-15T03:24:43;102726.72;;;3.19;97.42
72685;BME280;61365;52.162;4.500;2023-02-15T03:27:17;102725.47;;;3.12;97.28
72685;BME280;61365;52.162;4.500;2023-02-15T03:29:56;102722.06;;;3.13;97.66
72685;BME280;61365;52.162;4.500;2023-02-15T03:32:28;102724.03;;;3.18;97.28
72685;BME280;61365;52.162;4.500;2023-02-15T03:34:58;102717.66;;;3.12;97.28
72685;BME280;61365;52.162;4.500;2023-02-15T03:37:43;102712.47;;;3.12;96.73
72685;BME280;61365;52.162;4.500;2023-02-15T03:40:38;102713.72;;;3.04;96.78
72685;BME280;61365;52.162;4.500;2023-02-15T03:46:27;102704.44;;;3.08;97.12
72685;BME280;61365;52.162;4.500;2023-02-15T03:49:04;102701.03;;;3.09;97.12
72685;BME280;61365;52.162;4.500;2023-02-15T03:51:39;102699.63;;;3.14;96.63
72685;BME280;61365;52.162;4.500;2023-02-15T03:54:23;102707.28;;;3.12;96.61
72685;BME280;61365;52.162;4.500;2023-02-15T03:57:17;102695.13;;;3.11;96.09
72685;BME280;61365;52.162;4.500;2023-02-15T04:06:01;102687.72;;;3.18;96.37
72685;BME280;61365;52.162;4.500;2023-02-15T04:08:29;102685.94;;;3.17;96.14
72685;BME280;61365;52.162;4.500;2023-02-15T04:11:13;102684.06;;;3.14;96.43
72685;BME280;61365;52.162;4.500;2023-02-15T04:13:40;102670.28;;;3.15;96.49
72685;BME280;61365;52.162;4.500;2023-02-15T04:16:06;102667.59;;;3.13;95.91
72685;BME280;61365;52.162;4.500;2023-02-15T04:18:38;102666.50;;;3.10;96.12
72685;BME280;61365;52.162;4.500;2023-02-15T04:21:27;102672.31;;;3.06;95.72
72685;BME280;61365;52.162;4.500;2023-02-15T04:24:14;102669.72;;;3.06;95.72
72685;BME280;61365;52.162;4.500;2023-02-15T04:27:00;102668.66;;;3.02;96.13
72685;BME280;61365;52.162;4.500;2023-02-15T04:29:27;102673.19;;;3.06;95.95
72685;BME280;61365;52.162;4.500;2023-02-15T04:31:56;102673.31;;;3.08;95.55
72685;BME280;61365;52.162;4.500;2023-02-15T04:34:25;102673.31;;;3.08;95.54
72685;BME280;61365;52.162;4.500;2023-02-15T04:36:52;102668.81;;;3.05;95.24
72685;BME280;61365;52.162;4.500;2023-02-15T04:39:18;102667.03;;;3.04;95.81
72685;BME280;61365;52.162;4.500;2023-02-15T04:41:45;102675.91;;;3.08;95.66
72685;BME280;61365;52.162;4.500;2023-02-15T04:44:12;102671.72;;;3.10;95.59
72685;BME280;61365;52.162;4.500;2023-02-15T04:46:38;102668.94;;;3.07;95.90
72685;BME280;61365;52.162;4.500;2023-02-15T04:49:04;102667.22;;;3.07;95.87
72685;BME280;61365;52.162;4.500;2023-02-15T04:51:31;102658.75;;;3.10;95.57
72685;BME280;61365;52.162;4.500;2023-02-15T04:53:57;102660.97;;;3.04;95.73
72685;BME280;61365;52.162;4.500;2023-02-15T04:56:24;102653.25;;;3.05;96.10
72685;BME280;61365;52.162;4.500;2023-02-15T04:58:50;102648.72;;;3.01;95.95
72685;BME280;61365;52.162;4.500;2023-02-15T05:01:17;102649.94;;;2.93;95.77
72685;BME280;61365;52.162;4.500;2023-02-15T05:03:43;102646.38;;;2.91;96.48
72685;BME280;61365;52.162;4.500;2023-02-15T05:06:09;102653.16;;;2.89;96.53
72685;BME280;61365;52.162;4.500;2023-02-15T05:08:36;102645.75;;;2.95;96.92
72685;BME280;61365;52.162;4.500;2023-02-15T05:11:02;102647.81;;;3.00;96.94
72685;BME280;61365;52.162;4.500;2023-02-15T05:13:29;102646.47;;;3.07;97.10
72685;BME280;61365;52.162;4.500;2023-02-15T05:15:55;102642.88;;;3.05;96.49
72685;BME280;61365;52.162;4.500;2023-02-15T05:18:24;102642.63;;;3.00;96.95
72685;BME280;61365;52.162;4.500;2023-02-15T05:20:50;102650.78;;;3.07;96.96
72685;BME280;61365;52.162;4.500;2023-02-15T05:23:16;102642.19;;;3.08;96.96
72685;BME280;61365;52.162;4.500;2023-02-15T05:25:47;102647.25;;;3.06;96.58
72685;BME280;61365;52.162;4.500;2023-02-15T05:28:33;102650.94;;;3.10;96.86
72685;BME280;61365;52.162;4.500;2023-02-15T05:33:38;102654.25;;;3.07;96.52
72685;BME280;61365;52.162;4.500;2023-02-15T05:36:05;102648.19;;;3.07;97.01
72685;BME280;61365;52.162;4.500;2023-02-15T05:38:33;102647.38;;;3.08;96.46
72685;BME280;61365;52.162;4.500;2023-02-15T05:40:59;102637.63;;;3.04;96.84
72685;BME280;61365;52.162;4.500;2023-02-15T05:43:26;102634.59;;;3.11;96.21
72685;BME280;61365;52.162;4.500;2023-02-15T05:45:54;102634.28;;;3.06;96.44
72685;BME280;61365;52.162;4.500;2023-02-15T05:48:24;102628.78;;;3.00;96.63
72685;BME280;61365;52.162;4.500;2023-02-15T05:51:05;102624.09;;;2.94;96.85
72685;BME280;61365;52.162;4.500;2023-02-15T05:53:36;102625.06;;;2.96;96.91
72685;BME280;61365;52.162;4.500;2023-02-15T05:56:05;102619.25;;;2.85;96.90
72685;BME280;61365;52.162;4.500;2023-02-15T05:58:36;102616.41;;;2.81;96.91
72685;BME280;61365;52.162;4.500;2023-02-15T06:01:14;102618.53;;;2.73;96.78
72685;BME280;61365;52.162;4.500;2023-02-15T06:03:44;102621.22;;;2.75;97.14
72685;BME280;61365;52.162;4.500;2023-02-15T06:06:11;102620.59;;;2.79;97.25
72685;BME280;61365;52.162;4.500;2023-02-15T06:08:38;102627.56;;;2.80;97.12
72685;BME280;61365;52.162;4.500;2023-02-15T06:11:05;102621.66;;;2.82;97.33
72685;BME280;61365;52.162;4.500;2023-02-15T06:13:33;102618.28;;;2.83;97.15
72685;BME280;61365;52.162;4.500;2023-02-15T06:16:00;102623.72;;;2.73;97.53
72685;BME280;61365;52.162;4.500;2023-02-15T06:18:26;102627.19;;;2.74;97.29
72685;BME280;61365;52.162;4.500;2023-02-15T06:20:53;102621.13;;;2.73;96.85
72685;BME280;61365;52.162;4.500;2023-02-15T06:23:19;102629.59;;;2.70;96.84
72685;BME280;61365;52.162;4.500;2023-02-15T06:25:46;102624.16;;;2.66;96.69
72685;BME280;61365;52.162;4.500;2023-02-15T06:28:12;102631.47;;;2.58;97.23
72685;BME280;61365;52.162;4.500;2023-02-15T06:30:39;102621.78;;;2.55;97.10
72685;BME280;61365;52.162;4.500;2023-02-15T06:33:06;102628.75;;;2.57;97.76
72685;BME280;61365;52.162;4.500;2023-02-15T06:35:32;102621.59;;;2.52;97.77
72685;BME280;61365;52.162;4.500;2023-02-15T06:37:58;102625.09;;;2.53;97.94
72685;BME280;61365;52.162;4.500;2023-02-15T06:40:25;102626.91;;;2.54;97.48
72685;BME280;61365;52.162;4.500;2023-02-15T06:42:51;102618.78;;;2.63;97.86
72685;BME280;61365;52.162;4.500;2023-02-15T06:45:17;102625.03;;;2.66;97.79
72685;BME280;61365;52.162;4.500;2023-02-15T06:47:43;102618.53;;;2.73;97.83
72685;BME280;61365;52.162;4.500;2023-02-15T06:50:10;102618.72;;;2.76;98.11
72685;BME280;61365;52.162;4.500;2023-02-15T06:52:37;102613.63;;;2.78;97.83
72685;BME280;61365;52.162;4.500;2023-02-15T06:55:03;102615.41;;;2.79;97.41
72685;BME280;61365;52.162;4.500;2023-02-15T06:57:30;102618.81;;;2.78;97.36
72685;BME280;61365;52.162;4.500;2023-02-15T06:59:58;102612.81;;;2.79;97.40
72685;BME280;61365;52.162;4.500;2023-02-15T07:02:25;102610.84;;;2.75;97.37
72685;BME280;61365;52.162;4.500;2023-02-15T07:04:51;102599.56;;;2.59;97.59
72685;BME280;61365;52.162;4.500;2023-02-15T07:07:18;102602.16;;;2.59;97.84
72685;BME280;61365;52.162;4.500;2023-02-15T07:09:44;102603.94;;;2.60;97.68
72685;BME280;61365;52.162;4.500;2023-02-15T07:12:11;102602.66;;;2.53;98.30
72685;BME280;61365;52.162;4.500;2023-02-15T07:14:55;102605.28;;;2.68;98.37
72685;BME280;61365;52.162;4.500;2023-02-15T07:17:24;102602.25;;;2.61;97.75
72685;BME280;61365;52.162;4.500;2023-02-15T07:19:54;102604.94;;;2.62;98.48
72685;BME280;61365;52.162;4.500;2023-02-15T07:22:21;102601.44;;;2.62;97.60
72685;BME280;61365;52.162;4.500;2023-02-15T07:24:47;102602.00;;;2.71;97.07
72685;BME280;61365;52.162;4.500;2023-02-15T07:27:15;102587.78;;;2.79;96.71
72685;BME280;61365;52.162;4.500;2023-02-15T07:29:41;102596.91;;;2.73;96.96
72685;BME280;61365;52.162;4.500;2023-02-15T07:32:08;102597.91;;;2.90;97.40
72685;BME280;61365;52.162;4.500;2023-02-15T07:34:34;102591.00;;;2.90;96.66
72685;BME280;61365;52.162;4.500;2023-02-15T07:37:00;102586.00;;;2.93;95.53
72685;BME280;61365;52.162;4.500;2023-02-15T07:39:27;102577.53;;;2.96;95.20
72685;BME280;61365;52.162;4.500;2023-02-15T07:41:53;102585.00;;;2.91;95.39
72685;BME280;61365;52.162;4.500;2023-02-15T07:44:19;102579.56;;;2.87;95.00
72685;BME280;61365;52.162;4.500;2023-02-15T07:46:46;102574.94;;;2.96;95.38
72685;BME280;61365;52.162;4.500;2023-02-15T07:49:12;102580.72;;;3.07;95.29
72685;BME280;61365;52.162;4.500;2023-02-15T07:51:38;102575.97;;;3.29;94.62
72685;BME280;61365;52.162;4.500;2023-02-15T07:54:06;102582.81;;;3.44;93.38
72685;BME280;61365;52.162;4.500;2023-02-15T07:56:33;102575.81;;;3.58;92.80
72685;BME280;61365;52.162;4.500;2023-02-15T07:58:59;102579.97;;;3.71;92.17
72685;BME280;61365;52.162;4.500;2023-02-15T08:01:35;102576.63;;;3.88;92.27
72685;BME280;61365;52.162;4.500;2023-02-15T08:04:04;102573.97;;;4.03;90.87
72685;BME280;61365;52.162;4.500;2023-02-15T08:06:34;102563.25;;;3.97;89.70
72685;BME280;61365;52.162;4.500;2023-02-15T08:09:06;102570.28;;;3.83;89.76
72685;BME280;61365;52.162;4.500;2023-02-15T08:11:36;102564.69;;;3.75;90.03
72685;BME280;61365;52.162;4.500;2023-02-15T08:14:08;102567.28;;;3.75;89.34
72685;BME280;61365;52.162;4.500;2023-02-15T08:16:38;102569.56;;;3.54;89.73
72685;BME280;61365;52.162;4.500;2023-02-15T08:19:23;102563.84;;;3.45;89.99
72685;BME280;61365;52.162;4.500;2023-02-15T08:21:57;102567.06;;;3.41;90.97
72685;BME280;61365;52.162;4.500;2023-02-15T08:24:35;102569.13;;;3.47;90.61
72685;BME280;61365;52.162;4.500;2023-02-15T08:27:03;102569.78;;;3.42;90.92
72685;BME280;61365;52.162;4.500;2023-02-15T08:29:32;102566.41;;;3.60;90.38
72685;BME280;61365;52.162;4.500;2023-02-15T08:32:02;102560.97;;;3.55;90.77
72685;BME280;61365;52.162;4.500;2023-02-15T08:34:34;102566.81;;;3.68;90.54
72685;BME280;61365;52.162;4.500;2023-02-15T08:37:03;102565.47;;;3.74;90.15
72685;BME280;61365;52.162;4.500;2023-02-15T08:39:30;102561.94;;;3.89;89.27
72685;BME280;61365;52.162;4.500;2023-02-15T08:41:56;102558.00;;;3.81;88.59
72685;BME280;61365;52.162;4.500;2023-02-15T08:44:22;102564.97;;;4.13;88.54
72685;BME280;61365;52.162;4.500;2023-02-15T08:46:50;102555.03;;;4.23;87.64
72685;BME280;61365;52.162;4.500;2023-02-15T08:49:19;102557.66;;;4.39;87.02
72685;BME280;61365;52.162;4.500;2023-02-15T08:51:48;102562.13;;;4.25;87.05
72685;BME280;61365;52.162;4.500;2023-02-15T08:54:20;102558.47;;;4.73;86.17
72685;BME280;61365;52.162;4.500;2023-02-15T08:56:47;102562.94;;;4.75;85.36
72685;BME280;61365;52.162;4.500;2023-02-15T08:59:16;102559.09;;;4.50;85.72
72685;BME280;61365;52.162;4.500;2023-02-15T09:01:48;102571.97;;;4.65;85.89
72685;BME280;61365;52.162;4.500;2023-02-15T09:04:16;102577.41;;;4.87;84.89
72685;BME280;61365;52.162;4.500;2023-02-15T09:06:45;102574.22;;;5.10;84.71
72685;BME280;61365;52.162;4.500;2023-02-15T09:09:13;102569.88;;;4.93;83.83
72685;BME280;61365;52.162;4.500;2023-02-15T09:11:42;102568.66;;;4.51;85.41
72685;BME280;61365;52.162;4.500;2023-02-15T09:14:12;102556.97;;;4.43;86.42
72685;BME280;61365;52.162;4.500;2023-02-15T09:16:42;102556.09;;;4.77;85.38
72685;BME280;61365;52.162;4.500;2023-02-15T09:19:12;102550.09;;;4.78;85.30
72685;BME280;61365;52.162;4.500;2023-02-15T09:21:39;102550.56;;;4.88;84.62
72685;BME280;61365;52.162;4.500;2023-02-15T09:24:10;102554.69;;;4.84;83.80
72685;BME280;61365;52.162;4.500;2023-02-15T09:26:40;102550.88;;;5.30;84.43
72685;BME280;61365;52.162;4.500;2023-02-15T09:29:11;102548.59;;;5.36;82.83
72685;BME280;61365;52.162;4.500;2023-02-15T09:31:47;102555.44;;;5.34;83.21
72685;BME280;61365;52.162;4.500;2023-02-15T09:34:18;102553.03;;;5.57;83.20
72685;BME280;61365;52.162;4.500;2023-02-15T09:36:47;102543.09;;;5.68;81.95
72685;BME280;61365;52.162;4.500;2023-02-15T09:39:18;102539.09;;;5.94;82.49
72685;BME280;61365;52.162;4.500;2023-02-15T09:55:53;102536.66;;;6.37;82.20
72685;BME280;61365;52.162;4.500;2023-02-15T10:06:48;102534.69;;;7.14;79.45
72685;BME280;61365;52.162;4.500;2023-02-15T10:15:10;102536.84;;;6.82;80.49
72685;BME280;61365;52.162;4.500;2023-02-15T10:27:01;102531.09;;;6.70;81.51
72685;BME280;61365;52.162;4.500;2023-02-15T10:29:36;102531.03;;;6.68;82.70
72685;BME280;61365;52.162;4.500;2023-02-15T10:32:24;102526.03;;;6.94;82.66
72685;BME280;61365;52.162;4.500;2023-02-15T10:35:28;102531.72;;;7.28;80.81
72685;BME280;61365;52.162;4.500;2023-02-15T10:38:40;102526.50;;;7.28;81.70
72685;BME280;61365;52.162;4.500;2023-02-15T10:47:00;102509.41;;;7.36;82.04
72685;BME280;61365;52.162;4.500;2023-02-15T10:50:24;102507.47;;;7.53;80.96
72685;BME280;61365;52.162;4.500;2023-02-15T10:53:22;102492.25;;;7.43;81.57
72685;BME280;61365;52.162;4.500;2023-02-15T10:56:21;102479.44;;;7.49;82.21
72685;BME280;61365;52.162;4.500;2023-02-15T10:59:21;102479.47;;;7.50;81.62
72685;BME280;61365;52.162;4.500;2023-02-15T11:07:52;102470.22;;;8.07;79.55
72685;BME280;61365;52.162;4.500;2023-02-15T11:10:30;102466.78;;;8.08;79.73
72685;BME280;61365;52.162;4.500;2023-02-15T11:13:06;102472.16;;;8.13;79.52
72685;BME280;61365;52.162;4.500;2023-02-15T11:15:48;102468.91;;;8.19;78.63
72685;BME280;61365;52.162;4.500;2023-02-15T11:19:01;102475.03;;;8.45;77.78
72685;BME280;61365;52.162;4.500;2023-02-15T11:21:59;102476.34;;;8.58;77.40
72685;BME280;61365;52.162;4.500;2023-02-15T11:24:41;102479.44;;;8.72;77.32
72685;BME280;61365;52.162;4.500;2023-02-15T11:30:00;102479.59;;;8.77;75.23
72685;BME280;61365;52.162;4.500;2023-02-15T11:32:35;102472.75;;;8.80;73.49
72685;BME280;61365;52.162;4.500;2023-02-15T11:38:24;102478.31;;;8.91;73.52
72685;BME280;61365;52.162;4.500;2023-02-15T11:40:57;102472.91;;;9.14;73.73
72685;BME280;61365;52.162;4.500;2023-02-15T11:43:56;102473.28;;;9.26;71.78
72685;BME280;61365;52.162;4.500;2023-02-15T11:46:30;102455.84;;;9.27;72.27
72685;BME280;61365;52.162;4.500;2023-02-15T11:48:57;102442.22;;;9.39;72.61
72685;BME280;61365;52.162;4.500;2023-02-15T11:51:25;102438.56;;;9.63;72.82
72685;BME280;61365;52.162;4.500;2023-02-15T11:53:53;102445.06;;;9.77;71.93
72685;BME280;61365;52.162;4.500;2023-02-15T11:56:25;102445.41;;;9.89;71.55
72685;BME280;61365;52.162;4.500;2023-02-15T11:58:58;102446.56;;;9.99;70.90
72685;BME280;61365;52.162;4.500;2023-02-15T12:01:31;102445.91;;;10.40;70.04
72685;BME280;61365;52.162;4.500;2023-02-15T12:04:06;102446.94;;;10.47;69.58
72685;BME280;61365;52.162;4.500;2023-02-15T12:06:59;102431.72;;;10.69;68.64
72685;BME280;61365;52.162;4.500;2023-02-15T12:09:34;102436.25;;;10.39;69.06
72685;BME280;61365;52.162;4.500;2023-02-15T12:14:58;102434.09;;;10.58;69.70
72685;BME280;61365;52.162;4.500;2023-02-15T12:17:35;102426.31;;;10.29;70.44
72685;BME280;61365;52.162;4.500;2023-02-15T12:20:21;102434.28;;;10.65;68.97
72685;BME280;61365;52.162;4.500;2023-02-15T12:23:03;102429.25;;;10.75;68.18
72685;BME280;61365;52.162;4.500;2023-02-15T12:25:43;102421.78;;;10.55;67.49
72685;BME280;61365;52.162;4.500;2023-02-15T12:31:19;102416.75;;;10.64;67.84
72685;BME280;61365;52.162;4.500;2023-02-15T12:34:26;102420.78;;;10.50;67.62
72685;BME280;61365;52.162;4.500;2023-02-15T12:37:01;102420.13;;;10.25;68.44
72685;BME280;61365;52.162;4.500;2023-02-15T12:39:36;102417.59;;;10.30;69.23
72685;BME280;61365;52.162;4.500;2023-02-15T12:42:16;102412.13;;;10.54;68.49
72685;BME280;61365;52.162;4.500;2023-02-15T12:47:24;102405.19;;;10.56;68.10
72685;BME280;61365;52.162;4.500;2023-02-15T12:50:09;102406.38;;;10.35;70.96
72685;BME280;61365;52.162;4.500;2023-02-15T12:52:44;102401.88;;;10.65;69.99
72685;BME280;61365;52.162;4.500;2023-02-15T12:55:22;102413.66;;;10.82;67.45
72685;BME280;61365;52.162;4.500;2023-02-15T12:58:07;102406.13;;;10.60;67.55
72685;BME280;61365;52.162;4.500;2023-02-15T13:00:44;102405.38;;;10.64;67.57
72685;BME280;61365;52.162;4.500;2023-02-15T13:03:20;102405.22;;;10.58;68.36
72685;BME280;61365;52.162;4.500;2023-02-15T13:05:51;102394.78;;;10.59;67.95
72685;BME280;61365;52.162;4.500;2023-02-15T13:11:06;102386.94;;;10.62;68.10
72685;BME280;61365;52.162;4.500;2023-02-15T13:13:59;102392.56;;;10.41;69.65
72685;BME280;61365;52.162;4.500;2023-02-15T13:16:32;102385.81;;;10.52;69.88
72685;BME280;61365;52.162;4.500;2023-02-15T13:19:07;102389.88;;;10.75;67.33
72685;BME280;61365;52.162;4.500;2023-02-15T13:21:44;102388.16;;;10.77;66.65
72685;BME280;61365;52.162;4.500;2023-02-15T13:27:39;102382.69;;;10.68;66.44
72685;BME280;61365;52.162;4.500;2023-02-15T13:30:31;102370.47;;;10.68;67.32
72685;BME280;61365;52.162;4.500;2023-02-15T13:33:06;102376.34;;;10.58;67.85
72685;BME280;61365;52.162;4.500;2023-02-15T13:41:15;102372.78;;;10.56;67.73
72685;BME280;61365;52.162;4.500;2023-02-15T13:43:50;102361.97;;;10.42;67.79
72685;BME280;61365;52.162;4.500;2023-02-15T13:46:28;102361.09;;;10.41;67.38
72685;BME280;61365;52.162;4.500;2023-02-15T13:49:17;102352.09;;;10.33;68.33
72685;BME280;61365;52.162;4.500;2023-02-15T14:01:09;102344.69;;;10.51;67.47
72685;BME280;61365;52.162;4.500;2023-02-15T14:06:49;102337.38;;;10.76;67.71
72685;BME280;61365;52.162;4.500;2023-02-15T14:15:50;102335.09;;;10.54;68.00
72685;BME280;61365;52.162;4.500;2023-02-15T14:21:32;102340.50;;;10.58;67.09
72685;BME280;61365;52.162;4.500;2023-02-15T14:29:57;102347.63;;;10.65;67.97
72685;BME280;61365;52.162;4.500;2023-02-15T14:32:36;102347.00;;;10.76;65.86
72685;BME280;61365;52.162;4.500;2023-02-15T14:35:16;102344.28;;;10.71;67.59
72685;BME280;61365;52.162;4.500;2023-02-15T14:47:11;102349.72;;;10.42;67.86
72685;BME280;61365;52.162;4.500;2023-02-15T14:49:49;102346.44;;;10.51;67.54
72685;BME280;61365;52.162;4.500;2023-02-15T14:52:15;102341.78;;;10.39;69.66
72685;BME280;61365;52.162;4.500;2023-02-15T15:02:25;102339.66;;;10.61;67.78
72685;BME280;61365;52.162;4.500;2023-02-15T15:05:24;102338.84;;;10.63;68.14
72685;BME280;61365;52.162;4.500;2023-02-15T15:08:01;102337.41;;;10.40;67.64
72685;BME280;61365;52.162;4.500;2023-02-15T15:16:24;102333.94;;;10.41;68.45
72685;BME280;61365;52.162;4.500;2023-02-15T15:18:51;102324.97;;;10.32;69.74
72685;BME280;61365;52.162;4.500;2023-02-15T15:35:34;102326.38;;;10.18;70.31
72685;BME280;61365;52.162;4.500;2023-02-15T15:41:17;102321.94;;;10.15;69.88
72685;BME280;61365;52.162;4.500;2023-02-15T15:49:32;102324.13;;;9.98;71.41
72685;BME280;61365;52.162;4.500;2023-02-15T15:52:12;102319.31;;;10.15;71.02
72685;BME280;61365;52.162;4.500;2023-02-15T15:54:41;102311.91;;;9.99;72.35
72685;BME280;61365;52.162;4.500;2023-02-15T15:57:32;102316.69;;;9.80;72.26
72685;BME280;61365;52.162;4.500;2023-02-15T16:03:15;102307.78;;;9.73;72.90
72685;BME280;61365;52.162;4.500;2023-02-15T16:05:48;102301.69;;;9.74;72.68
72685;BME280;61365;52.162;4.500;2023-02-15T16:08:31;102302.16;;;9.58;72.38
72685;BME280;61365;52.162;4.500;2023-02-15T16:11:08;102294.97;;;9.52;73.56
72685;BME280;61365;52.162;4.500;2023-02-15T16:13:41;102301.22;;;9.56;74.94
72685;BME280;61365;52.162;4.500;2023-02-15T16:16:08;102294.31;;;9.59;74.49
72685;BME280;61365;52.162;4.500;2023-02-15T16:18:38;102287.13;;;9.52;76.06
72685;BME280;61365;52.162;4.500;2023-02-15T16:21:19;102292.97;;;9.42;75.39
72685;BME280;61365;52.162;4.500;2023-02-15T16:29:27;102292.50;;;9.25;73.33
72685;BME280;61365;52.162;4.500;2023-02-15T16:34:28;102303.84;;;9.25;74.95
72685;BME280;61365;52.162;4.500;2023-02-15T16:37:19;102301.16;;;9.22;74.18
72685;BME280;61365;52.162;4.500;2023-02-15T16:39:50;102296.84;;;9.24;75.36